Time;durP1;ratioP1;P1;durP2;ratioP2;P2;SDS_P1;SDS_P2;PMS_P1;PMS_P2;Temp;Humidity;BMP_temperature;BMP_pressure;BME280_temperature;BME280_humidity;BME280_pressure;Samples;Min_cycle;Max_cycle;Signal;HPM_P1;HPM_P2
2023/03/13 00:01:52;;;;;;;11.50;10.30;;;;;;;3.25;61.99;97418.72;97851;1274;22240;-86
2023/03/13 00:04:25;;;;;;;12.20;11.00;;;;;;;3.34;62.77;97420.65;109518;1276;22188;-90
2023/03/13 00:11:14;;;;;;;11.10;9.00;;;;;;;3.57;65.76;97406.41;99448;1272;22198;-88
2023/03/13 00:14:04;;;;;;;11.10;9.70;;;;;;;3.71;66.65;97409.78;109818;1293;21982;-91
2023/03/13 00:16:34;;;;;;;10.50;9.20;;;;;;;3.76;66.34;97406.48;109719;1276;21964;-88
2023/03/13 00:19:04;;;;;;;11.10;8.70;;;;;;;3.78;65.97;97401.83;109416;1278;21993;-87
2023/03/13 00:21:33;;;;;;;10.20;9.20;;;;;;;3.80;66.32;97394.95;109807;1293;22184;-89
2023/03/13 00:24:00;;;;;;;10.60;8.80;;;;;;;3.81;65.96;97394.59;109530;1293;22224;-89
2023/03/13 00:26:29;;;;;;;10.00;9.00;;;;;;;3.83;66.62;97394.48;109824;1272;21943;-87
2023/03/13 00:28:58;;;;;;;17.20;8.50;;;;;;;3.83;66.35;97390.91;109769;1293;22100;-90
2023/03/13 00:31:30;;;;;;;9.60;8.60;;;;;;;3.85;66.83;97390.85;109790;1293;22199;-89
2023/03/13 00:34:01;;;;;;;10.80;9.10;;;;;;;3.89;67.48;97392.08;109813;1293;21920;-90
2023/03/13 00:36:32;;;;;;;10.70;8.60;;;;;;;3.95;68.17;97386.58;109777;1293;22147;-91
2023/03/13 00:39:04;;;;;;;10.50;8.80;;;;;;;3.98;68.09;97383.07;109759;1293;22980;-90
2023/03/13 00:41:36;;;;;;;11.70;9.90;;;;;;;4.01;68.10;97375.65;109812;1293;22294;-92
2023/03/13 00:44:05;;;;;;;10.40;8.00;;;;;;;4.01;67.97;97368.61;109775;1293;22213;-91
2023/03/13 00:46:34;;;;;;;11.90;9.90;;;;;;;4.03;68.19;97364.18;109703;1293;22101;-91
2023/03/13 00:49:03;;;;;;;10.20;9.20;;;;;;;4.02;67.99;97368.92;109389;1292;22155;-92
2023/03/13 00:51:33;;;;;;;10.90;8.40;;;;;;;4.01;68.22;97373.88;109440;1293;22192;-92
2023/03/13 00:54:02;;;;;;;10.20;8.20;;;;;;;4.04;68.85;97374.31;109239;1293;23042;-90
2023/03/13 00:56:30;;;;;;;10.90;8.60;;;;;;;4.07;69.15;97362.52;109436;1293;22320;-89
2023/03/13 00:59:00;;;;;;;9.40;7.50;;;;;;;4.13;69.27;97359.20;109350;1293;22228;-92
2023/03/13 01:01:31;;;;;;;10.40;9.00;;;;;;;4.16;69.63;97349.43;109376;1293;22569;-91
2023/03/13 01:04:03;;;;;;;11.40;9.30;;;;;;;4.16;69.25;97343.36;109401;1293;22258;-89
2023/03/13 01:09:38;;;;;;;11.00;9.10;;;;;;;4.13;68.89;97334.52;100415;1270;22345;-86
2023/03/13 01:12:11;;;;;;;11.20;10.00;;;;;;;4.12;69.21;97346.40;109469;1274;23767;31
2023/03/13 01:14:41;;;;;;;10.30;8.30;;;;;;;4.12;69.21;97350.04;109602;1270;22047;-92
2023/03/13 01:17:09;;;;;;;10.40;8.90;;;;;;;4.13;69.28;97353.87;109804;1290;22172;-87
2023/03/13 01:19:44;;;;;;;9.30;8.30;;;;;;;4.16;70.32;97356.42;109615;1272;22337;31
2023/03/13 01:22:17;;;;;;;8.60;7.70;;;;;;;4.21;70.99;97350.17;106508;1270;22440;31
2023/03/13 01:24:48;;;;;;;9.20;8.30;;;;;;;4.24;70.84;97348.77;109552;1292;22118;-86
2023/03/13 01:27:28;;;;;;;9.40;8.40;;;;;;;4.24;70.18;97349.80;109288;1275;22384;31
2023/03/13 01:30:04;;;;;;;9.90;8.90;;;;;;;4.25;70.31;97346.20;109296;1274;22348;31
2023/03/13 01:32:39;;;;;;;9.00;8.10;;;;;;;4.24;70.19;97343.34;109534;1269;23015;31
2023/03/13 01:35:18;;;;;;;9.40;7.90;;;;;;;4.22;70.29;97340.73;109396;1276;22376;31
2023/03/13 01:38:04;;;;;;;9.50;8.30;;;;;;;4.27;71.00;97342.26;109405;1278;22388;31
2023/03/13 01:43:55;;;;;;;9.00;7.50;;;;;;;4.33;71.89;97354.45;109651;1270;22461;31
2023/03/13 01:46:32;;;;;;;8.40;7.50;;;;;;;4.31;71.58;97359.38;109709;1270;21934;31
2023/03/13 01:49:12;;;;;;;9.50;8.50;;;;;;;4.32;71.90;97357.82;109553;1274;22383;31
2023/03/13 01:55:24;;;;;;;9.40;7.90;;;;;;;4.38;72.47;97358.39;107971;1285;22567;31
2023/03/13 01:58:00;;;;;;;8.20;7.40;;;;;;;4.43;73.20;97361.20;109436;1276;22241;31
2023/03/13 02:00:36;;;;;;;8.90;8.00;;;;;;;4.48;73.67;97358.67;109362;1274;22719;31
2023/03/13 02:03:18;;;;;;;8.30;7.50;;;;;;;4.47;72.97;97361.73;98547;1276;23734;-89
2023/03/13 02:05:49;;;;;;;8.40;7.50;;;;;;;4.49;73.39;97355.95;109676;1283;22214;-91
2023/03/13 02:08:24;;;;;;;9.20;7.90;;;;;;;4.52;73.39;97365.81;109606;1292;22222;-92
2023/03/13 02:11:00;;;;;;;7.30;6.30;;;;;;;4.57;74.28;97369.33;109729;1292;22319;-89
2023/03/13 02:13:28;;;;;;;9.00;7.20;;;;;;;4.63;74.50;97367.43;109733;1292;22124;-92
2023/03/13 02:15:56;;;;;;;6.20;5.60;;;;;;;4.67;74.71;97364.59;109763;1292;22227;-93
2023/03/13 02:18:25;;;;;;;7.80;6.80;;;;;;;4.73;75.08;97362.26;109649;1292;22163;-92
2023/03/13 02:21:05;;;;;;;8.50;7.50;;;;;;;4.76;74.89;97364.55;109666;1292;22207;-90
2023/03/13 02:23:50;;;;;;;7.00;6.30;;;;;;;4.75;74.88;97365.73;109595;1273;22352;31
2023/03/13 02:26:24;;;;;;;8.70;6.50;;;;;;;4.78;75.66;97375.74;109676;1269;22220;-91
2023/03/13 02:30:33;;;;;;;7.70;6.90;;;;;;;4.85;75.82;97370.96;108476;1300;22234;-91
2023/03/13 02:35:01;;;;;;;7.10;6.40;;;;;;;4.85;75.34;97375.55;108157;1305;22300;-92
2023/03/13 02:41:47;;;;;;;7.00;6.30;;;;;;;4.91;76.63;97393.80;109629;1270;24245;31
2023/03/13 02:44:23;;;;;;;9.20;6.50;;;;;;;4.95;76.50;97392.64;109322;1276;22218;31
2023/03/13 02:46:57;;;;;;;9.10;6.40;;;;;;;4.95;76.21;97398.41;105989;1277;22924;31
2023/03/13 02:49:28;;;;;;;8.20;6.50;;;;;;;4.93;75.97;97396.02;109730;1271;21929;-89
2023/03/13 02:52:29;;;;;;;8.10;6.20;;;;;;;4.93;76.10;97397.67;109185;1277;22267;31
2023/03/13 02:55:09;;;;;;;8.30;6.00;;;;;;;5.00;76.91;97397.17;109380;1272;22236;31
2023/03/13 02:57:43;;;;;;;6.10;5.30;;;;;;;5.05;77.32;97393.52;107885;1273;23639;-91
2023/03/13 03:00:17;;;;;;;6.70;6.00;;;;;;;5.08;77.23;97400.43;109659;1270;22163;-85
2023/03/13 03:02:46;;;;;;;9.70;7.40;;;;;;;5.09;77.13;97395.67;108610;1276;22149;-90
2023/03/13 03:05:15;;;;;;;8.40;6.70;;;;;;;5.06;76.77;97397.56;109724;1289;22154;-89
2023/03/13 03:07:43;;;;;;;7.10;6.30;;;;;;;5.03;76.43;97394.06;109701;1291;22907;-91
2023/03/13 03:10:11;;;;;;;6.50;5.80;;;;;;;5.05;76.85;97397.46;109791;1291;22071;-92
2023/03/13 03:12:40;;;;;;;9.90;6.70;;;;;;;5.09;77.57;97398.02;109757;1291;22280;-90
2023/03/13 03:15:09;;;;;;;9.40;7.80;;;;;;;5.13;77.88;97400.41;109679;1291;22129;-92
2023/03/13 03:17:38;;;;;;;9.00;7.60;;;;;;;5.10;77.34;97406.88;109564;1291;22165;-90
2023/03/13 03:20:10;;;;;;;8.20;7.30;;;;;;;5.12;77.30;97407.30;109681;1291;22337;-89
2023/03/13 03:22:41;;;;;;;8.70;7.60;;;;;;;5.09;77.13;97408.17;109623;1291;22214;-89
2023/03/13 03:25:09;;;;;;;9.40;7.00;;;;;;;5.09;77.26;97405.83;109530;1291;22204;-89
2023/03/13 03:27:37;;;;;;;9.10;7.40;;;;;;;5.12;77.41;97406.40;109520;1291;22375;-91
2023/03/13 03:30:07;;;;;;;9.30;8.30;;;;;;;5.14;77.50;97406.23;109456;1291;22910;-90
2023/03/13 03:32:36;;;;;;;9.10;8.20;;;;;;;5.14;77.43;97402.44;109494;1291;22197;-89
2023/03/13 03:35:05;;;;;;;9.50;8.30;;;;;;;5.12;77.34;97405.02;109673;1284;22234;-88
2023/03/13 03:37:33;;;;;;;9.90;8.70;;;;;;;5.09;77.23;97402.45;109491;1291;22137;-90
2023/03/13 03:40:04;;;;;;;8.70;7.80;;;;;;;5.08;77.21;97400.86;109434;1291;22150;-89
2023/03/13 03:42:33;;;;;;;9.00;7.90;;;;;;;5.10;77.50;97404.86;109546;1291;22197;-89
2023/03/13 03:46:41;;;;;;;8.60;7.60;;;;;;;5.15;78.17;97399.02;109186;1296;22172;-89
2023/03/13 03:49:33;;;;;;;8.50;7.70;;;;;;;5.15;78.40;97397.98;108308;1302;22222;-90
2023/03/13 03:52:02;;;;;;;8.50;7.30;;;;;;;5.12;77.84;97401.16;108246;1302;22223;-91
2023/03/13 03:54:34;;;;;;;8.80;7.80;;;;;;;5.10;77.90;97400.48;108262;1302;22296;-91
2023/03/13 03:57:03;;;;;;;10.50;9.20;;;;;;;5.08;77.71;97407.33;108322;1302;22161;-91
2023/03/13 03:59:33;;;;;;;9.20;8.40;;;;;;;5.05;77.60;97402.53;108308;1302;22179;-93
2023/03/13 04:02:05;;;;;;;7.80;7.00;;;;;;;5.08;77.77;97408.34;108296;1302;22184;-90
2023/03/13 04:04:34;;;;;;;9.30;8.20;;;;;;;5.10;78.47;97404.06;108866;1299;22226;-92
2023/03/13 04:07:10;;;;;;;9.20;8.30;;;;;;;5.12;78.55;97400.75;108804;1299;22265;-88
2023/03/13 04:13:23;;;;;;;10.60;9.50;;;;;;;5.06;78.07;97400.81;108926;1269;22472;-89
2023/03/13 04:15:52;;;;;;;10.20;9.20;;;;;;;5.05;78.00;97404.36;109778;1282;22122;-93
2023/03/13 04:18:20;;;;;;;11.90;9.00;;;;;;;5.05;78.09;97402.91;109797;1292;22229;-94
2023/03/13 04:20:48;;;;;;;9.10;8.20;;;;;;;5.09;78.63;97404.92;109536;1292;22947;-91
2023/03/13 04:23:16;;;;;;;10.70;9.30;;;;;;;5.11;78.71;97402.73;109248;1292;22202;-91
2023/03/13 04:25:44;;;;;;;11.10;10.00;;;;;;;5.11;78.57;97401.27;109244;1292;22901;-91
2023/03/13 04:28:14;;;;;;;11.60;10.40;;;;;;;5.08;78.27;97402.63;109237;1292;22907;-89
2023/03/13 04:30:44;;;;;;;13.30;12.00;;;;;;;5.07;78.40;97405.35;109283;1292;22217;-87
2023/03/13 04:33:33;;;;;;;13.10;10.90;;;;;;;5.04;78.12;97403.02;109522;1292;22312;-91
2023/03/13 04:36:39;;;;;;;12.50;10.90;;;;;;;5.08;78.59;97404.39;109127;1292;22149;-90
2023/03/13 04:39:30;;;;;;;12.40;11.20;;;;;;;5.12;78.54;97408.27;109072;1292;22236;-91
2023/03/13 04:42:18;;;;;;;13.50;12.10;;;;;;;5.13;78.79;97401.17;109249;1286;22220;-88
2023/03/13 04:45:10;;;;;;;13.20;11.90;;;;;;;5.12;78.64;97402.14;109296;1292;22264;-89
2023/03/13 04:47:46;;;;;;;14.30;12.90;;;;;;;5.13;78.41;97404.69;109345;1292;22684;-92
2023/03/13 04:50:37;;;;;;;15.10;13.60;;;;;;;5.13;78.33;97404.52;109400;1292;22102;-91
2023/03/13 04:53:14;;;;;;;15.30;13.70;;;;;;;5.12;78.34;97399.41;109577;1292;22157;-92
2023/03/13 04:55:50;;;;;;;13.20;11.90;;;;;;;5.13;78.07;97397.52;109353;1292;22246;-91
2023/03/13 04:58:39;;;;;;;13.80;12.20;;;;;;;5.19;78.68;97398.99;109248;1292;22260;-91
2023/03/13 05:01:16;;;;;;;14.80;13.40;;;;;;;5.20;78.62;97395.29;109370;1292;23229;-92
2023/03/13 05:04:11;;;;;;;17.00;15.10;;;;;;;5.20;78.65;97394.48;109389;1292;22102;-89
2023/03/13 05:06:58;;;;;;;14.40;12.80;;;;;;;5.19;78.45;97389.80;109477;1292;22258;-92
2023/03/13 05:09:40;;;;;;;15.20;13.60;;;;;;;5.16;78.54;97385.54;109498;1292;22278;-91
2023/03/13 05:12:18;;;;;;;13.90;12.50;;;;;;;5.17;78.40;97383.45;109552;1292;22214;-90
2023/03/13 05:15:16;;;;;;;13.20;11.90;;;;;;;5.20;78.47;97382.67;109539;1292;22062;-88
2023/03/13 05:18:13;;;;;;;10.80;9.70;;;;;;;5.24;78.38;97377.48;108990;1292;22208;-89
2023/03/13 05:20:58;;;;;;;8.30;7.30;;;;;;;5.31;78.42;97380.81;109498;1292;22145;-91
2023/03/13 05:23:52;;;;;;;10.40;8.90;;;;;;;5.32;78.36;97377.70;109596;1292;22156;-88
2023/03/13 05:26:46;;;;;;;16.10;14.00;;;;;;;5.33;78.62;97381.00;109709;1272;22214;-89
2023/03/13 05:29:46;;;;;;;22.10;19.30;;;;;;;5.35;78.66;97379.17;109287;1292;22283;-87
2023/03/13 05:32:31;;;;;;;25.90;23.00;;;;;;;5.35;78.55;97377.62;109750;1292;22229;-90
2023/03/13 05:34:59;;;;;;;26.90;24.30;;;;;;;5.35;78.46;97373.62;109758;1292;22193;-89
2023/03/13 05:37:36;;;;;;;22.90;20.70;;;;;;;5.36;78.54;97373.61;109740;1292;22272;-85
2023/03/13 05:40:32;;;;;;;22.70;20.40;;;;;;;5.40;78.43;97374.81;109666;1273;22326;31
2023/03/13 05:43:38;;;;;;;24.60;22.40;;;;;;;5.48;78.39;97370.27;109178;1278;22497;-90
2023/03/13 05:46:27;;;;;;;26.80;24.30;;;;;;;5.53;78.48;97371.48;109634;1292;22114;-89
2023/03/13 05:49:05;;;;;;;32.90;29.60;;;;;;;5.55;78.69;97378.94;109657;1292;22259;-83
2023/03/13 05:52:01;;;;;;;22.70;19.60;;;;;;;5.51;78.63;97378.00;109691;1292;22887;-93
2023/03/13 05:54:44;;;;;;;17.00;15.20;;;;;;;5.49;78.79;97375.71;109736;1291;22166;-86
2023/03/13 05:57:25;;;;;;;17.80;16.00;;;;;;;5.47;78.76;97379.09;109630;1291;22355;-87
2023/03/13 06:00:03;;;;;;;15.40;13.80;;;;;;;5.44;78.67;97374.15;109678;1292;22338;-87
2023/03/13 06:02:42;;;;;;;14.30;12.00;;;;;;;5.44;78.68;97374.80;109589;1291;22151;-85
2023/03/13 06:05:14;;;;;;;16.30;14.60;;;;;;;5.47;78.93;97370.40;109507;1292;22896;-89
2023/03/13 06:07:42;;;;;;;18.20;16.60;;;;;;;5.49;79.11;97370.58;109655;1291;22237;-85
2023/03/13 06:10:11;;;;;;;21.70;19.60;;;;;;;5.50;78.99;97378.12;109437;1292;22239;-85
2023/03/13 06:12:39;;;;;;;22.00;19.70;;;;;;;5.51;79.08;97376.99;109225;1292;22148;-88
2023/03/13 06:15:10;;;;;;;19.90;17.80;;;;;;;5.54;79.20;97373.07;109499;1292;22286;-87
2023/03/13 06:18:02;;;;;;;20.50;18.50;;;;;;;5.53;79.02;97366.55;109607;1291;22837;-86
2023/03/13 06:20:29;;;;;;;17.10;15.30;;;;;;;5.53;79.10;97360.63;109586;1291;22213;-85
2023/03/13 06:22:57;;;;;;;18.20;16.40;;;;;;;5.52;79.19;97353.83;109606;1291;22218;-86
2023/03/13 06:25:25;;;;;;;15.20;13.70;;;;;;;5.59;79.27;97353.62;109568;1291;22286;-84
2023/03/13 06:27:54;;;;;;;14.40;12.70;;;;;;;5.68;79.31;97355.10;109824;1291;22180;-84
2023/03/13 06:30:22;;;;;;;11.80;10.10;;;;;;;5.79;79.45;97359.13;109819;1291;22244;-86
2023/03/13 06:32:50;;;;;;;13.20;11.10;;;;;;;5.86;79.55;97354.25;109535;1292;22265;-86
2023/03/13 06:35:18;;;;;;;15.80;12.50;;;;;;;5.94;79.74;97356.56;109497;1291;22243;-85
2023/03/13 06:37:46;;;;;;;13.40;12.00;;;;;;;6.02;79.67;97356.27;109511;1291;22213;-85
2023/03/13 06:40:14;;;;;;;14.00;10.90;;;;;;;6.06;79.56;97355.10;109506;1285;22230;-86
2023/03/13 06:42:42;;;;;;;13.60;10.70;;;;;;;6.10;79.55;97351.82;109520;1291;22428;-85
2023/03/13 06:45:10;;;;;;;14.70;10.10;;;;;;;6.13;79.36;97352.73;109527;1291;22267;-87
2023/03/13 06:47:38;;;;;;;14.20;9.90;;;;;;;6.15;79.11;97349.56;109533;1279;22229;-86
2023/03/13 06:50:07;;;;;;;13.60;10.90;;;;;;;6.19;79.11;97349.16;109536;1291;22329;-86
2023/03/13 06:52:36;;;;;;;13.00;9.60;;;;;;;6.25;79.22;97345.39;109519;1291;23412;-84
2023/03/13 06:55:12;;;;;;;14.90;9.90;;;;;;;6.32;79.40;97345.31;109546;1291;22415;-85
2023/03/13 06:57:40;;;;;;;17.60;10.10;;;;;;;6.35;79.18;97345.02;109560;1291;22221;-85
2023/03/13 07:00:10;;;;;;;13.80;9.90;;;;;;;6.38;79.25;97347.73;109530;1292;22122;-85
2023/03/13 07:02:38;;;;;;;12.80;9.20;;;;;;;6.42;79.10;97347.52;109517;1292;22128;-86
2023/03/13 07:05:07;;;;;;;19.90;10.70;;;;;;;6.44;78.88;97343.22;109536;1291;22241;-84
2023/03/13 07:07:35;;;;;;;14.40;9.30;;;;;;;6.49;79.12;97345.55;109521;1290;22207;-84
2023/03/13 07:10:31;;;;;;;24.70;17.10;;;;;;;6.60;79.11;97340.56;109547;1291;22122;-85
2023/03/13 07:12:59;;;;;;;35.10;21.60;;;;;;;6.67;79.13;97341.07;109542;1291;22310;-85
2023/03/13 07:15:27;;;;;;;27.30;20.30;;;;;;;6.72;78.75;97342.45;109504;1291;23035;-85
2023/03/13 07:17:57;;;;;;;20.50;15.00;;;;;;;6.78;78.49;97336.75;109511;1291;22304;-85
2023/03/13 07:20:25;;;;;;;24.60;15.60;;;;;;;6.88;78.36;97334.15;109526;1291;22601;-85
2023/03/13 07:22:53;;;;;;;25.50;14.00;;;;;;;7.01;77.79;97333.02;109409;1291;22211;-85
2023/03/13 07:25:21;;;;;;;19.10;11.80;;;;;;;7.18;77.85;97336.86;109499;1291;22938;-85
2023/03/13 07:27:51;;;;;;;17.30;11.40;;;;;;;7.31;77.96;97336.29;109523;1291;22148;-85
2023/03/13 07:30:19;;;;;;;17.40;12.50;;;;;;;7.42;77.46;97329.27;109502;1291;22218;-86
2023/03/13 07:32:47;;;;;;;20.70;11.90;;;;;;;7.50;77.50;97324.79;109499;1292;22964;-86
2023/03/13 07:35:15;;;;;;;14.20;10.30;;;;;;;7.58;76.64;97322.04;109494;1292;23071;-84
2023/03/13 07:37:43;;;;;;;14.50;9.60;;;;;;;7.63;76.40;97325.70;109395;1292;22209;-85
2023/03/13 07:40:12;;;;;;;15.30;10.20;;;;;;;7.69;75.79;97327.48;109508;1292;23124;-84
2023/03/13 07:42:41;;;;;;;13.70;9.10;;;;;;;7.78;75.30;97327.28;109474;1291;22290;-86
2023/03/13 07:45:09;;;;;;;12.40;8.20;;;;;;;7.90;76.22;97322.62;109527;1288;22178;-85
2023/03/13 07:47:37;;;;;;;12.50;9.30;;;;;;;8.07;76.30;97315.20;109520;1292;22205;-85
2023/03/13 07:50:05;;;;;;;14.40;9.30;;;;;;;8.18;75.81;97310.75;109525;1291;22180;-85
2023/03/13 07:52:34;;;;;;;14.40;9.20;;;;;;;8.30;75.78;97308.85;109468;1291;22241;-85
2023/03/13 07:55:02;;;;;;;11.50;8.80;;;;;;;8.42;75.08;97308.98;109404;1292;22864;-85
2023/03/13 07:57:30;;;;;;;13.80;9.00;;;;;;;8.48;74.24;97312.02;109409;1291;22230;-84
2023/03/13 07:59:58;;;;;;;14.50;9.20;;;;;;;8.51;74.04;97315.82;109511;1292;23001;-85
2023/03/13 08:02:26;;;;;;;16.40;9.40;;;;;;;8.59;73.58;97309.05;109505;1288;22181;-86
2023/03/13 08:04:54;;;;;;;16.90;12.40;;;;;;;8.65;72.92;97305.30;109386;1292;22240;-85
2023/03/13 08:07:25;;;;;;;19.40;14.20;;;;;;;8.70;72.63;97302.39;109507;1291;22698;-85
2023/03/13 08:09:53;;;;;;;12.40;9.20;;;;;;;8.71;72.53;97301.04;109556;1291;22380;-87
2023/03/13 08:12:21;;;;;;;16.70;10.30;;;;;;;8.78;72.55;97302.38;109454;1291;22337;-87
2023/03/13 08:14:50;;;;;;;15.90;9.70;;;;;;;8.85;73.04;97294.50;109559;1291;22121;-86
2023/03/13 08:17:18;;;;;;;15.20;9.20;;;;;;;8.92;73.35;97294.99;109554;1292;22238;-86
2023/03/13 08:19:46;;;;;;;12.20;8.70;;;;;;;9.00;72.94;97292.22;109526;1291;22216;-86
2023/03/13 08:22:14;;;;;;;21.70;10.80;;;;;;;9.07;72.18;97292.81;109502;1291;22371;-85
2023/03/13 08:24:42;;;;;;;14.00;9.10;;;;;;;9.13;71.93;97289.20;109436;1292;22420;-87
2023/03/13 08:27:10;;;;;;;15.10;9.60;;;;;;;9.20;71.48;97293.61;109558;1291;22210;-85
2023/03/13 08:29:38;;;;;;;13.30;8.40;;;;;;;9.27;71.17;97291.67;109312;1291;22221;-87
2023/03/13 08:32:07;;;;;;;13.90;9.20;;;;;;;9.33;71.09;97285.71;109530;1291;22317;-86
2023/03/13 08:34:35;;;;;;;18.80;9.10;;;;;;;9.43;71.56;97281.99;109540;1292;22252;-85
2023/03/13 08:37:03;;;;;;;19.20;10.40;;;;;;;9.55;70.76;97281.76;109614;1291;22704;-87
2023/03/13 08:39:31;;;;;;;20.10;8.80;;;;;;;9.61;71.12;97281.08;109640;1291;22221;-85
2023/03/13 08:41:59;;;;;;;18.20;8.00;;;;;;;9.68;69.92;97277.34;109581;1288;22869;-85
2023/03/13 08:44:27;;;;;;;17.70;9.40;;;;;;;9.67;69.03;97277.21;109409;1292;22166;-86
2023/03/13 08:46:58;;;;;;;16.50;9.10;;;;;;;9.69;68.82;97270.48;109447;1291;22110;-86
2023/03/13 08:49:26;;;;;;;15.70;9.40;;;;;;;9.76;68.30;97272.80;109554;1291;22224;-87
2023/03/13 08:51:55;;;;;;;21.10;13.20;;;;;;;9.80;67.97;97262.31;109452;1291;22147;-85
2023/03/13 08:54:23;;;;;;;24.60;15.70;;;;;;;9.87;67.41;97267.13;109512;1291;22303;-85
2023/03/13 08:56:51;;;;;;;18.40;10.50;;;;;;;9.98;67.87;97259.67;109559;1291;22174;-87
2023/03/13 08:59:19;;;;;;;24.10;15.50;;;;;;;10.11;66.96;97260.62;109592;1288;22219;-87
2023/03/13 09:01:47;;;;;;;29.40;19.30;;;;;;;10.24;66.49;97260.23;109439;1286;22211;-86
2023/03/13 09:04:17;;;;;;;23.00;15.50;;;;;;;10.34;65.86;97261.64;109583;1291;22191;-86
2023/03/13 09:06:45;;;;;;;24.50;17.50;;;;;;;10.39;65.25;97257.77;109816;1292;22242;-87
2023/03/13 09:09:13;;;;;;;23.90;15.50;;;;;;;10.43;65.13;97264.70;109844;1292;22405;-82
2023/03/13 09:11:41;;;;;;;23.80;16.50;;;;;;;10.46;65.00;97258.63;109741;1286;22210;-87
2023/03/13 09:14:09;;;;;;;18.60;9.90;;;;;;;10.55;65.26;97253.64;109795;1292;22195;-86
2023/03/13 09:16:37;;;;;;;17.20;11.90;;;;;;;10.67;64.67;97258.95;109776;1292;22127;-88
2023/03/13 09:19:06;;;;;;;15.00;8.10;;;;;;;10.73;63.48;97255.45;109765;1292;22154;-89
2023/03/13 09:21:34;;;;;;;23.30;9.70;;;;;;;10.74;62.61;97257.96;109606;1292;22224;-87
2023/03/13 09:24:03;;;;;;;14.50;9.70;;;;;;;10.70;62.22;97267.97;109327;1292;22174;-88
2023/03/13 09:26:31;;;;;;;15.70;9.20;;;;;;;10.68;62.09;97268.48;109497;1292;22233;-83
2023/03/13 09:28:59;;;;;;;12.90;7.60;;;;;;;10.74;62.56;97258.18;109508;1292;22405;-88
2023/03/13 09:31:31;;;;;;;19.50;9.00;;;;;;;10.87;62.24;97264.83;109523;1292;22954;-82
2023/03/13 09:34:01;;;;;;;14.90;7.40;;;;;;;10.96;61.96;97255.98;109551;1292;22341;-89
2023/03/13 09:43:23;;;;;;;15.70;10.20;;;;;;;11.27;61.09;97248.34;95046;1276;22394;31
2023/03/13 09:48:56;;;;;;;13.10;7.80;;;;;;;11.33;59.95;97244.80;109594;1269;22390;31
2023/03/13 09:51:26;;;;;;;16.50;12.00;;;;;;;11.37;59.54;97245.38;109678;1293;22242;-90
2023/03/13 09:54:19;;;;;;;15.70;13.10;;;;;;;11.38;58.84;97246.25;109459;1293;22336;-92
2023/03/13 09:56:55;;;;;;;14.40;10.20;;;;;;;11.28;59.25;97233.80;109630;1270;22312;-88
2023/03/13 09:59:23;;;;;;;12.10;6.70;;;;;;;11.33;59.64;97232.27;109659;1289;22214;-92
2023/03/13 10:01:54;;;;;;;13.70;10.00;;;;;;;11.45;58.91;97233.35;109665;1292;22345;-91
2023/03/13 10:04:31;;;;;;;15.00;7.70;;;;;;;11.46;58.39;97234.56;109561;1292;22214;-86
2023/03/13 10:07:02;;;;;;;16.50;7.70;;;;;;;11.40;58.28;97228.45;109565;1273;22228;-88
2023/03/13 10:09:40;;;;;;;14.60;8.50;;;;;;;11.44;58.50;97228.02;109622;1269;22474;31
2023/03/13 10:12:20;;;;;;;11.30;7.00;;;;;;;11.51;57.84;97233.80;109721;1286;22126;-89
2023/03/13 10:15:16;;;;;;;11.30;5.90;;;;;;;11.52;58.61;97223.02;109635;1292;22218;-86
2023/03/13 10:17:44;;;;;;;11.60;7.50;;;;;;;11.71;58.29;97220.83;109552;1285;22177;-88
2023/03/13 10:20:24;;;;;;;15.50;9.20;;;;;;;11.82;57.90;97208.56;109661;1292;22213;-92
2023/03/13 10:23:02;;;;;;;11.80;6.30;;;;;;;11.93;57.68;97209.25;109628;1291;22730;-90
2023/03/13 10:25:38;;;;;;;11.80;7.50;;;;;;;12.09;58.13;97199.86;109514;1291;22188;-86
2023/03/13 10:28:25;;;;;;;11.50;6.50;;;;;;;12.37;57.79;97191.55;109681;1285;22234;-88
2023/03/13 10:31:05;;;;;;;11.50;5.90;;;;;;;12.58;56.78;97184.15;109678;1292;22215;-88
2023/03/13 10:33:36;;;;;;;14.80;5.70;;;;;;;12.72;56.35;97187.30;109640;1292;22281;-93
2023/03/13 10:36:07;;;;;;;10.50;5.10;;;;;;;12.93;56.03;97185.98;109652;1273;22442;-91
2023/03/13 10:38:51;;;;;;;13.90;6.30;;;;;;;13.04;54.77;97189.94;109530;1293;22178;-88
2023/03/13 10:41:27;;;;;;;14.70;11.00;;;;;;;13.07;54.44;97190.73;109430;1292;22228;-94
2023/03/13 10:44:02;;;;;;;15.50;9.20;;;;;;;13.05;53.74;97188.96;109549;1292;22169;-91
2023/03/13 10:46:33;;;;;;;14.40;7.00;;;;;;;13.00;54.00;97189.70;109358;1286;22419;-86
2023/03/13 10:49:03;;;;;;;20.50;13.90;;;;;;;13.09;54.12;97190.98;109313;1293;22324;-89
2023/03/13 10:51:37;;;;;;;26.90;22.60;;;;;;;13.21;53.72;97181.91;109563;1292;22325;-87
2023/03/13 10:54:22;;;;;;;15.60;9.90;;;;;;;13.29;52.75;97171.95;109361;1292;22393;-89
2023/03/13 10:56:54;;;;;;;19.10;13.00;;;;;;;13.19;52.08;97165.87;109599;1292;22280;-88
2023/03/13 10:59:26;;;;;;;16.00;11.60;;;;;;;13.12;52.53;97161.93;109536;1292;22280;-91
2023/03/13 11:01:59;;;;;;;8.20;4.90;;;;;;;13.04;51.75;97160.95;109558;1293;22294;-92
2023/03/13 11:04:38;;;;;;;8.60;5.80;;;;;;;12.86;51.62;97167.09;109365;1292;23056;-90
2023/03/13 11:07:15;;;;;;;10.80;5.90;;;;;;;12.74;51.43;97160.19;109437;1290;23198;-90
2023/03/13 11:09:58;;;;;;;10.50;5.30;;;;;;;12.67;51.50;97154.67;109542;1292;22221;-90
2023/03/13 11:12:26;;;;;;;8.70;4.70;;;;;;;12.67;51.17;97142.19;109261;1292;22148;-87
2023/03/13 11:15:10;;;;;;;10.20;5.50;;;;;;;12.69;51.24;97147.89;109455;1293;22057;-91
2023/03/13 11:17:40;;;;;;;11.70;5.50;;;;;;;12.77;51.14;97136.13;109542;1288;22282;-89
2023/03/13 11:20:22;;;;;;;11.20;5.20;;;;;;;12.81;50.76;97135.55;109530;1293;22987;-92
2023/03/13 11:23:23;;;;;;;14.40;6.10;;;;;;;12.79;50.47;97127.05;109658;1292;22232;-89
2023/03/13 11:26:08;;;;;;;11.60;5.30;;;;;;;12.78;50.49;97125.02;109584;1292;22295;-88
2023/03/13 11:28:51;;;;;;;8.70;5.30;;;;;;;12.67;50.37;97120.88;109499;1292;23458;-90
2023/03/13 11:31:44;;;;;;;9.90;5.60;;;;;;;12.59;50.53;97113.54;109559;1292;22239;-89
2023/03/13 11:34:25;;;;;;;12.80;6.10;;;;;;;12.47;50.59;97117.64;109483;1292;22237;-90
2023/03/13 11:37:01;;;;;;;12.40;6.40;;;;;;;12.35;50.73;97119.13;109521;1292;22197;-90
2023/03/13 11:40:20;;;;;;;12.00;6.10;;;;;;;12.28;51.23;97115.48;109591;1292;22203;-89
2023/03/13 11:43:12;;;;;;;10.80;5.50;;;;;;;12.29;50.98;97111.45;109473;1292;22270;-89
2023/03/13 11:45:58;;;;;;;15.00;7.10;;;;;;;12.28;51.17;97102.67;109307;1292;22270;-90
2023/03/13 11:48:29;;;;;;;11.00;5.40;;;;;;;12.30;51.04;97092.56;109351;1290;23073;-88
2023/03/13 11:51:16;;;;;;;12.80;5.20;;;;;;;12.29;50.34;97077.92;109311;1293;22260;-89
2023/03/13 11:54:05;;;;;;;11.20;6.60;;;;;;;12.29;50.69;97071.69;109266;1293;22238;-86
2023/03/13 11:56:57;;;;;;;9.40;5.20;;;;;;;12.36;50.34;97065.30;109229;1293;22471;-89
2023/03/13 11:59:47;;;;;;;7.50;4.70;;;;;;;12.41;49.55;97059.77;109183;1294;22229;-88
2023/03/13 12:02:33;;;;;;;11.00;5.70;;;;;;;12.42;48.87;97052.95;109174;1293;22215;-86
2023/03/13 12:05:08;;;;;;;8.50;4.50;;;;;;;12.47;48.57;97050.46;109311;1293;22235;-90
2023/03/13 12:07:41;;;;;;;8.60;4.90;;;;;;;12.48;48.35;97033.78;109463;1272;21864;-91
2023/03/13 12:10:22;;;;;;;8.80;5.10;;;;;;;12.46;47.09;97027.46;109531;1292;22282;-87
2023/03/13 12:12:55;;;;;;;10.00;5.00;;;;;;;12.43;47.85;97031.52;109459;1292;22289;-86
2023/03/13 12:15:28;;;;;;;7.80;4.40;;;;;;;12.46;47.71;97038.42;109224;1292;22164;-85
2023/03/13 12:18:04;;;;;;;6.30;4.90;;;;;;;12.50;47.93;97042.56;109242;1292;22952;-84
2023/03/13 12:20:40;;;;;;;10.30;4.70;;;;;;;12.56;48.10;97035.98;109430;1277;22375;-84
2023/03/13 12:23:19;;;;;;;7.20;3.90;;;;;;;12.66;47.89;97029.92;109288;1293;22160;-91
2023/03/13 12:25:53;;;;;;;7.60;4.90;;;;;;;12.75;48.13;97028.74;109229;1293;22224;-91
2023/03/13 12:28:48;;;;;;;6.10;4.20;;;;;;;12.84;47.68;97028.36;109384;1293;22365;-92
2023/03/13 12:31:25;;;;;;;7.20;4.40;;;;;;;12.89;47.18;97014.41;109256;1293;22310;-91
2023/03/13 12:33:56;;;;;;;8.00;4.40;;;;;;;12.91;47.08;97005.39;109765;1293;22126;-93
2023/03/13 12:36:39;;;;;;;6.90;3.80;;;;;;;12.93;47.05;97001.20;109718;1293;22155;-93